Notre-Dame-du-Portage, Canada
Current Conditions -  °F | °C
As of 8:53 PM on Friday 28 Nov 2014 (Local Time) from KFVE Reporting Station
Light Snow Light Snow  
Wind Chill: -16°   Ceiling: 4700
Heat Index: -11°   Visibility: 3mi
Dew Point: -12°   Wind: 6mph
Humidity: 92%   Direction: 320°NW
Pressure: 30"   Gusts: NA
Location:  47.76°N, 69.61°W
Report Text: KFVE 290153Z AUTO 32005KT 3SM -SN BR BKN047 OVC080 M11/M12 A3000 RMK AO2 SLP178 P0000 T11061117
Loading
Personal Weather Stations






























Interactive Weather Map New forecast layout! Learn more

10-Day Weather Forecast

Advertisements
Track Severe Weather on mobile